Time;durP1;ratioP1;P1;durP2;ratioP2;P2;SDS_P1;SDS_P2;PMS_P1;PMS_P2;Temp;Humidity;BMP_temperature;BMP_pressure;BME280_temperature;BME280_humidity;BME280_pressure;Samples;Min_cycle;Max_cycle;Signal;HPM_P1;HPM_P2
2021/04/28 00:02:08;;;;;;;9.73;6.97;;;9.80;74.80;;;;;;5012057;28;20053;-73
2021/04/28 00:04:34;;;;;;;8.98;7.35;;;9.70;74.90;;;;;;5012999;28;20468;-73
2021/04/28 00:07:03;;;;;;;10.23;6.60;;;9.50;76.00;;;;;;5012978;28;20028;-71
2021/04/28 00:09:29;;;;;;;11.95;7.60;;;9.30;76.40;;;;;;5013241;28;20026;-72
2021/04/28 00:11:56;;;;;;;11.30;7.68;;;9.20;77.40;;;;;;5011968;28;20025;-73
2021/04/28 00:14:21;;;;;;;8.13;6.60;;;9.00;78.60;;;;;;5011782;28;20049;-72
2021/04/28 00:16:47;;;;;;;9.15;7.40;;;8.90;79.40;;;;;;5013167;28;20648;-72
2021/04/28 00:19:12;;;;;;;10.43;7.20;;;8.60;82.50;;;;;;5013397;28;20030;-72
2021/04/28 00:21:38;;;;;;;8.77;7.43;;;8.70;81.60;;;;;;5012982;28;20028;-71
2021/04/28 00:24:04;;;;;;;11.20;7.00;;;8.60;83.50;;;;;;5012780;28;20097;-71
2021/04/28 00:26:29;;;;;;;8.88;7.25;;;8.30;87.40;;;;;;5012814;28;20033;-71
2021/04/28 00:28:54;;;;;;;9.93;7.43;;;8.40;86.90;;;;;;5013295;28;20105;-71
2021/04/28 00:31:20;;;;;;;10.73;7.82;;;8.30;89.20;;;;;;5012654;28;20080;-71
2021/04/28 00:33:46;;;;;;;9.38;7.00;;;8.00;92.40;;;;;;5012586;28;20029;-70
2021/04/28 00:36:11;;;;;;;8.18;7.35;;;7.90;93.20;;;;;;5012705;28;20029;-71
2021/04/28 00:38:37;;;;;;;12.00;7.32;;;8.00;94.50;;;;;;5012683;28;20519;-71
2021/04/28 00:41:09;;;;;;;10.75;7.50;;;8.00;94.90;;;;;;5012356;28;20034;-72
2021/04/28 00:43:36;;;;;;;8.30;7.35;;;7.90;96.20;;;;;;5007343;28;20026;-72
2021/04/28 00:46:03;;;;;;;8.55;7.60;;;8.00;96.90;;;;;;5012537;28;20025;-72
2021/04/28 00:48:29;;;;;;;9.10;7.93;;;7.90;97.50;;;;;;5012439;28;20026;-71
2021/04/28 00:50:55;;;;;;;9.18;7.68;;;7.90;98.00;;;;;;5012432;28;20152;-71
2021/04/28 00:53:22;;;;;;;10.57;7.88;;;7.80;98.60;;;;;;5012200;28;20484;-72
2021/04/28 00:55:48;;;;;;;10.18;7.50;;;7.80;99.40;;;;;;5012154;28;20768;-72
2021/04/28 00:58:14;;;;;;;9.95;7.28;;;7.80;99.80;;;;;;5010852;28;20033;-72
2021/04/28 01:00:41;;;;;;;10.43;8.07;;;7.90;99.90;;;;;;5012433;28;20484;-73
2021/04/28 01:03:07;;;;;;;10.13;7.53;;;7.40;99.90;;;;;;5012167;28;20022;-72
2021/04/28 01:05:33;;;;;;;9.45;8.23;;;7.40;99.90;;;;;;5012139;28;20024;-72
2021/04/28 01:07:59;;;;;;;11.18;7.80;;;7.50;99.90;;;;;;5012132;28;20044;-71
2021/04/28 01:10:30;;;;;;;10.13;8.35;;;7.50;99.90;;;;;;5012139;28;20014;-71
2021/04/28 01:12:56;;;;;;;11.60;8.48;;;7.60;99.90;;;;;;5011931;28;20057;-71
2021/04/28 01:15:25;;;;;;;9.45;8.45;;;7.40;99.90;;;;;;5011804;28;20105;-71
2021/04/28 01:17:51;;;;;;;11.93;9.05;;;7.50;99.90;;;;;;5011279;28;20033;-72
2021/04/28 01:20:19;;;;;;;9.85;8.43;;;7.50;99.90;;;;;;5011986;28;20419;-72
2021/04/28 01:22:46;;;;;;;11.10;8.93;;;7.40;99.90;;;;;;5011790;28;20100;-72
2021/04/28 01:25:21;;;;;;;11.15;8.50;;;7.60;99.90;;;;;;5010585;28;20045;-72
2021/04/28 01:27:54;;;;;;;9.40;8.40;;;7.50;99.90;;;;;;5012071;28;20480;-73
2021/04/28 01:30:20;;;;;;;9.82;8.70;;;7.30;99.90;;;;;;5012012;28;20476;-72
2021/04/28 01:32:48;;;;;;;12.25;9.05;;;7.10;99.90;;;;;;5012013;28;20026;-72
2021/04/28 01:35:17;;;;;;;11.32;8.80;;;7.20;99.90;;;;;;5011725;28;20021;-71
2021/04/28 01:37:43;;;;;;;11.30;8.48;;;7.10;99.90;;;;;;5011991;28;20048;-71
2021/04/28 01:40:12;;;;;;;11.55;8.98;;;6.90;99.90;;;;;;5011855;28;20112;-71
2021/04/28 01:42:38;;;;;;;10.15;8.88;;;6.90;99.90;;;;;;5011848;28;20034;-71
2021/04/28 01:45:04;;;;;;;10.93;9.00;;;7.20;99.90;;;;;;5011967;28;20045;-71
2021/04/28 01:47:30;;;;;;;13.27;8.68;;;6.90;99.90;;;;;;5011920;28;20030;-71
2021/04/28 01:49:57;;;;;;;11.43;8.63;;;7.10;99.90;;;;;;5010728;28;20034;-71
2021/04/28 01:52:23;;;;;;;13.23;9.57;;;6.80;99.90;;;;;;4998793;28;20037;-71
2021/04/28 01:54:49;;;;;;;10.45;9.20;;;6.90;99.90;;;;;;5011540;28;20034;-72
2021/04/28 01:57:15;;;;;;;10.90;9.27;;;6.90;99.90;;;;;;5011783;28;20030;-72
2021/04/28 01:59:42;;;;;;;11.45;9.13;;;6.80;99.90;;;;;;5010430;28;20388;-71
2021/04/28 02:02:09;;;;;;;12.90;9.23;;;6.70;99.90;;;;;;5011778;28;20022;-73
2021/04/28 02:04:36;;;;;;;13.18;9.02;;;7.00;99.90;;;;;;5006096;28;20109;-71
2021/04/28 02:07:03;;;;;;;10.13;8.65;;;7.00;99.90;;;;;;5011798;28;20033;-70
2021/04/28 02:09:29;;;;;;;11.02;9.90;;;6.80;99.90;;;;;;5011608;28;20069;-72
2021/04/28 02:11:54;;;;;;;12.32;9.60;;;6.70;99.90;;;;;;5009909;28;20053;-72
2021/04/28 02:14:21;;;;;;;11.75;9.60;;;6.60;99.90;;;;;;5011444;28;20029;-72
2021/04/28 02:16:48;;;;;;;12.10;9.27;;;6.50;99.90;;;;;;5011520;28;20022;-72
2021/04/28 02:19:16;;;;;;;11.63;9.60;;;6.60;99.90;;;;;;5011701;28;20033;-72
2021/04/28 02:21:48;;;;;;;14.10;9.63;;;6.60;99.90;;;;;;5011672;28;20026;-72
2021/04/28 02:24:14;;;;;;;12.93;10.20;;;6.40;99.90;;;;;;5010150;28;20022;-72
2021/04/28 02:26:41;;;;;;;14.52;9.52;;;6.50;99.90;;;;;;5010352;28;20026;-72
2021/04/28 02:29:07;;;;;;;12.43;10.20;;;6.30;99.90;;;;;;5013163;28;20033;-72
2021/04/28 02:31:33;;;;;;;12.43;9.40;;;6.30;99.90;;;;;;5013860;28;20026;-74
2021/04/28 02:34:01;;;;;;;11.93;9.50;;;6.20;99.90;;;;;;5001650;28;20109;-72
2021/04/28 02:36:27;;;;;;;12.40;9.85;;;6.10;99.90;;;;;;5006777;28;20031;-73
2021/04/28 02:38:58;;;;;;;10.70;9.52;;;6.10;99.90;;;;;;5008613;28;20388;-73
2021/04/28 02:41:25;;;;;;;13.65;10.77;;;6.00;99.90;;;;;;5004577;28;20797;-73
2021/04/28 02:43:54;;;;;;;12.57;10.10;;;5.80;99.90;;;;;;5014825;28;20034;-72
2021/04/28 02:46:20;;;;;;;12.32;10.90;;;5.80;99.90;;;;;;5005390;28;20563;-71
2021/04/28 02:48:50;;;;;;;12.68;10.43;;;5.90;99.90;;;;;;5007261;28;20113;-70
2021/04/28 02:51:16;;;;;;;12.27;10.88;;;5.70;99.90;;;;;;5005667;28;20024;-72
2021/04/28 02:53:44;;;;;;;13.68;12.02;;;5.60;99.90;;;;;;5001524;28;20127;-72
2021/04/28 02:56:10;;;;;;;13.60;10.35;;;5.70;99.90;;;;;;5004443;28;20105;-72
2021/04/28 02:58:37;;;;;;;11.90;10.68;;;5.80;99.90;;;;;;5008447;28;20026;-72
2021/04/28 03:01:04;;;;;;;13.63;10.30;;;5.70;99.90;;;;;;5005587;28;20428;-72
2021/04/28 03:03:31;;;;;;;11.60;10.30;;;5.60;99.90;;;;;;5013147;28;20076;-72
2021/04/28 03:05:56;;;;;;;15.52;11.43;;;5.50;99.90;;;;;;5014654;28;20033;-73
2021/04/28 03:08:22;;;;;;;12.68;10.20;;;5.60;99.90;;;;;;5014523;28;20569;-74
2021/04/28 03:10:52;;;;;;;12.05;10.75;;;5.80;99.90;;;;;;5013285;28;20108;-74
2021/04/28 03:13:18;;;;;;;12.90;10.30;;;5.70;99.90;;;;;;5014480;28;20093;-73
2021/04/28 03:15:45;;;;;;;13.18;11.20;;;5.50;99.90;;;;;;5012993;28;20024;-74
2021/04/28 03:18:14;;;;;;;16.08;11.65;;;5.50;99.90;;;;;;5013662;28;20491;-73
2021/04/28 03:20:42;;;;;;;11.43;10.23;;;5.50;99.90;;;;;;5014442;28;20041;-73
2021/04/28 03:23:12;;;;;;;12.77;10.80;;;5.40;99.90;;;;;;5014226;28;20026;-74
2021/04/28 03:25:38;;;;;;;13.27;10.13;;;5.50;99.90;;;;;;5014464;28;20056;-73
2021/04/28 03:28:04;;;;;;;12.02;10.55;;;5.20;99.90;;;;;;5014160;28;20062;-73
2021/04/28 03:30:29;;;;;;;13.52;10.48;;;5.20;99.90;;;;;;5014312;28;20049;-73
2021/04/28 03:32:55;;;;;;;13.80;10.63;;;5.40;99.90;;;;;;5012794;28;20022;-74
2021/04/28 03:35:20;;;;;;;13.52;11.07;;;5.20;99.90;;;;;;5013884;28;20079;-74
2021/04/28 03:37:46;;;;;;;14.43;10.65;;;5.30;99.90;;;;;;5012805;28;20029;-73
2021/04/28 03:40:12;;;;;;;13.93;10.85;;;5.40;99.90;;;;;;5013163;28;20399;-72
2021/04/28 03:42:37;;;;;;;14.07;11.15;;;5.50;99.90;;;;;;4999447;28;20034;-72
2021/04/28 03:45:05;;;;;;;14.75;12.05;;;5.30;99.90;;;;;;5013722;28;20026;-72
2021/04/28 03:47:30;;;;;;;17.20;11.80;;;5.20;99.90;;;;;;5000933;28;20030;-73
2021/04/28 03:49:57;;;;;;;13.93;12.43;;;5.20;99.90;;;;;;5012590;28;20111;-73
2021/04/28 03:52:23;;;;;;;16.55;12.38;;;5.20;99.90;;;;;;5001177;28;20021;-72
2021/04/28 03:54:49;;;;;;;15.70;12.80;;;5.20;99.90;;;;;;5000722;28;20018;-73
2021/04/28 03:57:14;;;;;;;14.57;12.90;;;5.20;99.90;;;;;;5013379;28;20101;-71
2021/04/28 03:59:40;;;;;;;16.08;12.35;;;5.10;99.90;;;;;;5012313;28;20029;-73
2021/04/28 04:02:05;;;;;;;13.48;11.02;;;5.20;99.90;;;;;;5012723;28;20480;-72
2021/04/28 04:04:31;;;;;;;15.20;12.05;;;5.10;99.90;;;;;;5013338;28;20033;-73
2021/04/28 04:06:57;;;;;;;16.23;12.23;;;5.30;99.90;;;;;;5013517;28;20029;-73
2021/04/28 04:09:22;;;;;;;15.68;12.30;;;5.20;99.90;;;;;;5012132;28;20030;-72
2021/04/28 04:11:49;;;;;;;19.58;12.57;;;5.10;99.90;;;;;;5013475;28;20096;-71
2021/04/28 04:14:15;;;;;;;15.40;13.60;;;5.20;99.90;;;;;;5013177;28;20106;-71
2021/04/28 04:16:40;;;;;;;15.63;12.45;;;5.10;99.90;;;;;;5013385;28;20037;-71
2021/04/28 04:19:06;;;;;;;14.32;12.30;;;5.10;99.90;;;;;;5013180;28;20030;-71
2021/04/28 04:21:31;;;;;;;17.67;12.85;;;5.00;99.90;;;;;;5013005;28;20025;-71
2021/04/28 04:23:58;;;;;;;17.15;12.45;;;5.20;99.90;;;;;;5011710;28;20045;-72
2021/04/28 04:26:23;;;;;;;15.90;11.63;;;5.00;99.90;;;;;;5011617;28;20033;-72
2021/04/28 04:28:48;;;;;;;14.85;12.40;;;5.30;99.90;;;;;;5013057;28;20029;-72
2021/04/28 04:31:14;;;;;;;17.20;12.70;;;5.20;99.90;;;;;;5012915;28;20393;-72
2021/04/28 04:33:40;;;;;;;14.68;12.52;;;5.20;99.90;;;;;;5012850;28;20073;-72
2021/04/28 04:36:05;;;;;;;14.70;12.90;;;5.40;99.90;;;;;;5012913;28;20500;-73
2021/04/28 04:38:31;;;;;;;17.08;12.75;;;5.30;99.90;;;;;;5011419;28;20034;-73
2021/04/28 04:40:56;;;;;;;15.23;13.38;;;5.40;99.90;;;;;;5006560;28;20124;-72
2021/04/28 04:43:22;;;;;;;16.13;13.98;;;5.40;99.90;;;;;;5005534;28;20033;-72
2021/04/28 04:45:47;;;;;;;16.55;13.45;;;5.40;99.90;;;;;;5012601;28;20100;-72
2021/04/28 04:48:13;;;;;;;21.13;15.18;;;5.40;99.90;;;;;;5011450;28;20033;-72
2021/04/28 04:50:39;;;;;;;16.58;13.15;;;5.60;99.90;;;;;;5012637;28;20022;-73
2021/04/28 04:53:05;;;;;;;15.15;13.27;;;5.60;99.90;;;;;;5012505;28;20022;-72
2021/04/28 04:55:32;;;;;;;14.98;13.45;;;5.70;99.90;;;;;;5006582;28;20030;-72
2021/04/28 04:57:57;;;;;;;20.02;18.02;;;5.80;99.90;;;;;;5004231;28;20036;-73
2021/04/28 05:00:23;;;;;;;16.13;13.98;;;6.00;99.90;;;;;;5012575;28;20038;-73
2021/04/28 05:02:49;;;;;;;18.73;14.00;;;6.10;99.90;;;;;;5012491;28;20084;-72
2021/04/28 05:05:16;;;;;;;18.75;13.52;;;6.10;99.90;;;;;;5012138;28;20025;-72
2021/04/28 05:07:42;;;;;;;23.80;20.75;;;6.30;99.90;;;;;;5010905;28;20022;-72
2021/04/28 05:10:10;;;;;;;20.05;16.60;;;6.40;99.90;;;;;;5012480;28;20109;-72
2021/04/28 05:12:36;;;;;;;28.88;17.42;;;6.40;99.90;;;;;;5012385;28;20026;-73
2021/04/28 05:15:02;;;;;;;23.13;15.65;;;6.60;99.90;;;;;;5006269;28;20434;-73
2021/04/28 05:17:28;;;;;;;40.78;35.47;;;6.70;99.90;;;;;;5005336;28;20500;-73
2021/04/28 05:19:53;;;;;;;37.03;33.10;;;6.80;99.90;;;;;;5012236;28;20064;-71
2021/04/28 05:22:23;;;;;;;23.15;18.23;;;6.90;99.90;;;;;;4998465;28;20030;-72
2021/04/28 05:24:49;;;;;;;15.65;14.02;;;7.10;99.90;;;;;;4997474;28;20105;-72
2021/04/28 05:27:14;;;;;;;16.55;12.65;;;7.10;99.90;;;;;;5012194;28;20069;-74
2021/04/28 05:29:40;;;;;;;15.38;12.60;;;7.20;99.90;;;;;;5006429;28;20050;-72
2021/04/28 05:32:05;;;;;;;15.50;12.13;;;7.30;99.90;;;;;;5004400;28;20032;-72
2021/04/28 05:34:31;;;;;;;15.50;12.27;;;7.40;99.90;;;;;;5011892;28;20036;-73
2021/04/28 05:36:56;;;;;;;17.75;14.52;;;7.50;99.90;;;;;;5012257;28;20026;-72
2021/04/28 05:39:22;;;;;;;15.35;12.13;;;7.70;99.90;;;;;;5006465;28;20057;-72
2021/04/28 05:41:47;;;;;;;19.55;13.23;;;7.80;99.90;;;;;;5004591;28;20121;-72
2021/04/28 05:44:13;;;;;;;16.90;12.77;;;7.90;99.90;;;;;;5011916;28;20056;-73
2021/04/28 05:46:39;;;;;;;17.15;11.50;;;7.90;99.90;;;;;;5011837;28;20053;-74
2021/04/28 05:49:05;;;;;;;15.90;12.32;;;8.20;99.90;;;;;;5014197;28;20026;-74
2021/04/28 05:51:31;;;;;;;16.20;12.23;;;8.30;99.90;;;;;;5012035;28;20138;-74
2021/04/28 05:53:57;;;;;;;16.70;12.50;;;8.50;99.90;;;;;;5011789;28;20022;-75
2021/04/28 05:56:22;;;;;;;16.20;11.63;;;8.60;99.90;;;;;;5010754;28;20029;-74
2021/04/28 05:58:48;;;;;;;14.95;11.18;;;8.60;99.90;;;;;;5012100;28;20044;-74
2021/04/28 06:01:15;;;;;;;16.50;12.25;;;8.70;99.90;;;;;;5012335;28;20032;-73
2021/04/28 06:03:40;;;;;;;15.77;12.45;;;8.80;99.90;;;;;;5013116;28;20380;-73
2021/04/28 06:06:06;;;;;;;17.45;12.63;;;8.90;99.90;;;;;;5015903;28;20022;-73
2021/04/28 06:08:31;;;;;;;16.67;11.82;;;9.00;99.90;;;;;;5016136;28;20030;-73
2021/04/28 06:10:57;;;;;;;16.00;11.85;;;9.00;99.90;;;;;;5016134;28;20022;-71
2021/04/28 06:13:22;;;;;;;15.65;12.20;;;9.20;99.90;;;;;;5016071;28;20029;-72
2021/04/28 06:15:48;;;;;;;17.52;11.55;;;9.20;99.90;;;;;;5016041;28;20093;-73
2021/04/28 06:18:13;;;;;;;13.93;10.52;;;9.20;99.90;;;;;;5014450;28;20388;-73
2021/04/28 06:20:39;;;;;;;16.25;11.80;;;9.40;99.90;;;;;;5016179;28;20030;-72
2021/04/28 06:23:05;;;;;;;16.55;11.52;;;9.40;99.90;;;;;;5025542;28;20029;-73
2021/04/28 06:25:30;;;;;;;16.05;11.73;;;9.50;99.90;;;;;;5015359;28;20030;-72
2021/04/28 06:27:56;;;;;;;16.25;11.02;;;9.60;99.90;;;;;;5015626;28;20034;-72
2021/04/28 06:30:22;;;;;;;13.90;11.18;;;9.80;99.90;;;;;;5015493;28;20184;-72
2021/04/28 06:32:49;;;;;;;17.38;13.32;;;10.10;99.90;;;;;;5015578;28;20527;-73
2021/04/28 06:35:15;;;;;;;16.67;12.60;;;10.30;99.90;;;;;;5015360;28;20050;-73
2021/04/28 06:37:41;;;;;;;16.67;11.70;;;10.30;99.90;;;;;;5015484;28;20383;-72
2021/04/28 06:40:08;;;;;;;20.80;12.63;;;10.40;99.90;;;;;;5014406;28;20112;-72
2021/04/28 06:42:34;;;;;;;33.67;20.65;;;10.50;99.90;;;;;;5013763;28;20057;-72
2021/04/28 06:44:59;;;;;;;13.77;11.52;;;10.50;99.90;;;;;;5015184;28;20064;-72
2021/04/28 06:47:26;;;;;;;20.30;11.95;;;10.60;99.90;;;;;;5015087;28;20089;-73
2021/04/28 06:49:53;;;;;;;18.00;10.88;;;10.80;99.90;;;;;;5015143;28;20066;-73
2021/04/28 06:52:19;;;;;;;16.15;10.45;;;10.90;99.90;;;;;;5002045;28;20029;-73
2021/04/28 06:54:44;;;;;;;14.35;12.05;;;11.00;99.90;;;;;;5014891;28;20025;-73
2021/04/28 06:57:10;;;;;;;12.93;10.27;;;11.10;99.90;;;;;;5013711;28;20044;-72
2021/04/28 06:59:36;;;;;;;17.05;11.57;;;11.10;99.90;;;;;;5014970;28;20400;-68
2021/04/28 07:02:01;;;;;;;14.73;11.32;;;11.10;99.90;;;;;;5013552;28;20069;-69
2021/04/28 07:04:27;;;;;;;14.55;11.05;;;11.10;99.90;;;;;;5014678;28;20104;-74
2021/04/28 07:06:53;;;;;;;24.05;13.80;;;11.30;99.90;;;;;;5001621;28;20026;-73
2021/04/28 07:09:19;;;;;;;16.83;11.82;;;11.40;99.90;;;;;;5014799;28;20472;-72
2021/04/28 07:11:44;;;;;;;14.38;10.95;;;11.40;99.90;;;;;;5014655;28;20022;-72
2021/04/28 07:14:11;;;;;;;12.90;10.77;;;11.40;99.90;;;;;;5014528;28;20053;-72
2021/04/28 07:16:36;;;;;;;12.73;9.73;;;11.50;99.90;;;;;;5000199;28;20488;-72
2021/04/28 07:19:02;;;;;;;13.73;10.15;;;11.60;99.90;;;;;;5014545;28;20045;-72
2021/04/28 07:21:28;;;;;;;12.40;9.82;;;11.70;99.90;;;;;;5014428;28;20022;-72
2021/04/28 07:23:53;;;;;;;13.90;10.85;;;11.70;99.90;;;;;;5013329;28;20026;-72
2021/04/28 07:26:19;;;;;;;11.18;9.73;;;11.80;99.90;;;;;;5014620;28;20026;-73
2021/04/28 07:28:49;;;;;;;12.77;10.10;;;11.90;99.90;;;;;;5014786;28;20034;-72
2021/04/28 07:31:15;;;;;;;13.57;10.25;;;12.10;99.90;;;;;;5001177;28;20014;-73
2021/04/28 07:33:41;;;;;;;13.60;10.00;;;12.10;99.90;;;;;;5014083;28;20031;-72
2021/04/28 07:36:07;;;;;;;11.15;9.52;;;12.10;99.90;;;;;;5014231;28;20025;-72
2021/04/28 07:38:33;;;;;;;12.32;9.88;;;12.20;99.90;;;;;;5014084;28;20065;-73
2021/04/28 07:40:59;;;;;;;11.77;10.07;;;12.20;99.90;;;;;;5014459;28;20425;-72
2021/04/28 07:43:25;;;;;;;11.75;9.38;;;12.20;99.90;;;;;;5012765;28;20065;-72
2021/04/28 07:45:50;;;;;;;13.88;10.45;;;12.30;99.90;;;;;;5000761;28;20034;-72
2021/04/28 07:48:16;;;;;;;10.32;8.85;;;12.40;99.90;;;;;;5014191;28;20034;-73
2021/04/28 07:50:44;;;;;;;12.15;9.93;;;12.50;99.90;;;;;;4999652;28;20021;-72
2021/04/28 07:53:09;;;;;;;11.05;8.80;;;12.60;99.90;;;;;;5014132;28;20022;-73
2021/04/28 07:55:36;;;;;;;14.00;9.43;;;12.70;99.90;;;;;;5007865;28;20129;-72
2021/04/28 07:58:03;;;;;;;10.82;9.25;;;12.50;99.90;;;;;;5007441;28;20434;-71
2021/04/28 08:00:29;;;;;;;11.60;9.45;;;12.80;99.90;;;;;;5012589;28;20029;-73
2021/04/28 08:02:55;;;;;;;13.13;9.50;;;12.90;99.90;;;;;;5000688;28;20045;-72
2021/04/28 08:05:21;;;;;;;14.90;9.23;;;13.00;99.90;;;;;;5015338;28;20097;-73
2021/04/28 08:07:47;;;;;;;15.32;9.38;;;12.80;99.90;;;;;;5018532;28;20116;-72
2021/04/28 08:10:12;;;;;;;11.45;8.15;;;12.80;99.90;;;;;;5013566;28;20056;-73
2021/04/28 08:12:38;;;;;;;12.85;7.97;;;13.00;99.90;;;;;;5010372;28;20438;-72
2021/04/28 08:15:05;;;;;;;11.65;8.38;;;13.10;99.90;;;;;;5013262;28;20083;-72
2021/04/28 08:17:31;;;;;;;13.00;9.05;;;13.10;99.90;;;;;;5013370;28;20075;-72
2021/04/28 08:19:58;;;;;;;14.20;10.63;;;13.20;99.90;;;;;;5007146;28;20030;-72
2021/04/28 08:22:24;;;;;;;14.38;9.82;;;13.30;99.90;;;;;;5006900;28;20030;-72
2021/04/28 08:24:50;;;;;;;13.70;9.52;;;13.00;99.90;;;;;;5000358;28;20516;-72
2021/04/28 08:27:15;;;;;;;14.68;9.80;;;13.10;99.90;;;;;;5011617;28;20030;-72
2021/04/28 08:29:41;;;;;;;16.98;10.50;;;13.30;99.90;;;;;;5012197;28;20506;-72
2021/04/28 08:32:07;;;;;;;11.98;10.02;;;13.40;99.90;;;;;;5013717;28;20022;-72
2021/04/28 08:34:32;;;;;;;11.05;9.73;;;13.30;99.90;;;;;;5013236;28;20053;-72
2021/04/28 08:36:58;;;;;;;14.43;9.60;;;13.10;99.90;;;;;;5013393;28;20097;-72
2021/04/28 08:39:23;;;;;;;9.75;8.73;;;13.30;99.90;;;;;;5013416;28;20029;-72
2021/04/28 08:41:50;;;;;;;10.80;8.95;;;13.60;99.90;;;;;;5013549;28;20096;-73
2021/04/28 08:44:17;;;;;;;9.93;8.45;;;13.80;99.90;;;;;;5013113;28;20544;-72
2021/04/28 08:46:43;;;;;;;15.20;9.55;;;14.20;99.90;;;;;;5011992;28;20036;-72
2021/04/28 08:49:09;;;;;;;13.27;8.70;;;14.40;99.90;;;;;;5013595;28;20026;-72
2021/04/28 08:51:38;;;;;;;8.75;7.85;;;14.40;99.90;;;;;;5013249;28;20030;-72
2021/04/28 08:54:05;;;;;;;10.68;8.60;;;14.50;99.90;;;;;;5000240;28;20497;-72
2021/04/28 08:56:31;;;;;;;12.00;8.48;;;14.50;99.90;;;;;;5013049;28;20109;-72
2021/04/28 08:58:58;;;;;;;10.73;8.45;;;14.70;99.90;;;;;;5012890;28;20513;-72
2021/04/28 09:01:30;;;;;;;16.23;8.73;;;14.80;99.90;;;;;;5012642;28;20029;-73
2021/04/28 09:03:57;;;;;;;11.48;8.30;;;14.90;99.90;;;;;;5000616;28;20611;-73
2021/04/28 09:06:31;;;;;;;10.93;8.57;;;15.00;99.90;;;;;;5026111;28;20025;-73
2021/04/28 09:09:02;;;;;;;10.85;8.45;;;15.20;99.90;;;;;;5012655;28;20113;-73
2021/04/28 09:11:46;;;;;;;12.32;8.40;;;15.10;99.90;;;;;;5007661;28;20032;-72
2021/04/28 09:14:20;;;;;;;17.23;8.70;;;15.20;99.90;;;;;;5004387;28;20028;-72
2021/04/28 09:17:00;;;;;;;12.80;9.52;;;15.30;99.90;;;;;;5000037;28;20037;-71
2021/04/28 09:19:34;;;;;;;13.20;9.00;;;15.40;99.90;;;;;;5012536;28;20026;-72
2021/04/28 09:22:04;;;;;;;8.50;7.53;;;15.10;99.90;;;;;;5013060;28;20018;-72
2021/04/28 09:24:35;;;;;;;11.20;8.30;;;15.30;99.90;;;;;;4999418;28;20044;-73
2021/04/28 09:27:01;;;;;;;13.60;8.18;;;15.40;99.50;;;;;;5013122;28;20026;-72
2021/04/28 09:29:32;;;;;;;11.80;8.38;;;15.40;99.60;;;;;;5012890;28;20029;-73
2021/04/28 09:32:07;;;;;;;15.10;9.27;;;15.50;99.60;;;;;;5013102;28;20029;-72
2021/04/28 09:34:38;;;;;;;13.60;10.15;;;15.60;99.90;;;;;;4999796;28;20023;-72
2021/04/28 09:37:08;;;;;;;11.38;9.60;;;15.80;99.90;;;;;;5013138;28;20022;-72
2021/04/28 09:39:39;;;;;;;11.70;8.13;;;15.60;99.50;;;;;;5010911;28;20022;-71
2021/04/28 09:42:06;;;;;;;11.32;7.68;;;15.90;98.90;;;;;;5011298;28;20037;-72
2021/04/28 09:44:33;;;;;;;12.93;9.63;;;16.00;97.30;;;;;;5013167;28;20511;-72
2021/04/28 09:47:08;;;;;;;13.10;7.85;;;16.30;97.80;;;;;;5013050;28;20034;-72
2021/04/28 09:49:59;;;;;;;8.97;8.03;;;16.30;96.00;;;;;;5012366;28;20450;-72
2021/04/28 09:52:33;;;;;;;10.75;7.43;;;16.20;94.30;;;;;;5012019;28;20113;-73
2021/04/28 09:55:01;;;;;;;11.23;7.45;;;16.00;93.90;;;;;;4999494;28;20029;-72
2021/04/28 09:57:39;;;;;;;11.95;7.43;;;16.30;95.90;;;;;;5004318;28;20026;-72
2021/04/28 10:00:24;;;;;;;12.63;7.38;;;16.60;95.50;;;;;;5010027;28;20484;-72
2021/04/28 10:03:02;;;;;;;8.57;7.30;;;16.40;93.20;;;;;;5013014;28;20084;-72
2021/04/28 10:05:33;;;;;;;10.35;7.30;;;16.30;91.10;;;;;;5013133;28;20037;-72
2021/04/28 10:08:13;;;;;;;10.75;6.85;;;16.60;91.10;;;;;;5016250;28;20392;-72
2021/04/28 10:10:40;;;;;;;10.77;7.05;;;16.90;92.60;;;;;;5011636;28;20187;-73
2021/04/28 10:13:06;;;;;;;8.80;6.80;;;16.80;88.40;;;;;;5011748;28;20092;-72
2021/04/28 10:15:32;;;;;;;9.27;7.07;;;16.80;87.40;;;;;;5010905;28;20018;-72
2021/04/28 10:18:03;;;;;;;9.02;6.78;;;16.80;86.60;;;;;;5012516;28;20033;-73
2021/04/28 10:20:31;;;;;;;14.38;8.10;;;17.00;84.90;;;;;;5013140;28;20052;-72
2021/04/28 10:23:05;;;;;;;10.27;7.72;;;17.30;87.70;;;;;;5012603;28;20036;-72
2021/04/28 10:25:31;;;;;;;10.02;7.47;;;17.20;85.60;;;;;;5012465;28;20053;-72
2021/04/28 10:27:59;;;;;;;10.27;6.47;;;17.30;83.30;;;;;;5011392;28;20030;-72
2021/04/28 10:30:25;;;;;;;11.23;7.15;;;17.40;83.30;;;;;;5012912;28;20018;-72
2021/04/28 10:32:52;;;;;;;8.88;6.80;;;17.40;81.90;;;;;;5011144;28;20361;-73
2021/04/28 10:35:20;;;;;;;10.48;7.18;;;17.60;82.60;;;;;;5012369;28;20025;-72
2021/04/28 10:37:51;;;;;;;8.27;6.75;;;17.70;84.10;;;;;;5012831;28;20084;-72
2021/04/28 10:40:20;;;;;;;7.82;6.57;;;17.60;81.30;;;;;;5012643;28;20025;-72
2021/04/28 10:42:46;;;;;;;9.30;6.40;;;17.80;79.60;;;;;;5011227;28;20044;-72
2021/04/28 10:45:30;;;;;;;10.40;6.95;;;17.90;78.40;;;;;;5011985;28;20061;-72
2021/04/28 10:47:56;;;;;;;8.65;6.93;;;18.00;77.60;;;;;;5011632;28;20064;-72
2021/04/28 10:50:35;;;;;;;9.00;6.88;;;18.10;74.60;;;;;;5001661;28;20384;-73
2021/04/28 10:53:24;;;;;;;10.15;6.97;;;18.10;73.90;;;;;;5016454;28;20048;-72
2021/04/28 10:55:54;;;;;;;9.88;6.70;;;18.00;72.40;;;;;;5013010;28;20041;-73
2021/04/28 10:58:34;;;;;;;8.45;6.22;;;18.20;76.00;;;;;;5014431;28;20400;-73
2021/04/28 11:01:06;;;;;;;10.63;6.43;;;18.50;76.30;;;;;;5003770;28;20033;-73
2021/04/28 11:03:49;;;;;;;8.70;6.40;;;18.50;74.30;;;;;;5013512;28;20076;-72
2021/04/28 11:06:24;;;;;;;10.05;7.65;;;18.70;70.70;;;;;;5009658;28;20117;-73
2021/04/28 11:08:56;;;;;;;7.50;6.40;;;18.70;74.40;;;;;;5015568;28;20022;-73
2021/04/28 11:11:30;;;;;;;10.55;7.28;;;18.80;76.40;;;;;;5014330;28;20030;-73
2021/04/28 11:14:08;;;;;;;11.23;7.28;;;18.90;70.40;;;;;;5002717;28;20025;-72
2021/04/28 11:16:55;;;;;;;9.45;7.00;;;18.50;68.40;;;;;;5012802;28;20480;-71
2021/04/28 11:19:21;;;;;;;8.80;6.10;;;18.80;72.10;;;;;;5015362;28;20102;-71
2021/04/28 11:22:28;;;;;;;8.95;6.30;;;19.00;70.20;;;;;;5015041;28;20435;-71
2021/04/28 11:25:12;;;;;;;9.13;7.15;;;19.10;69.90;;;;;;5011440;28;20037;-71
2021/04/28 11:27:43;;;;;;;11.57;6.70;;;19.20;69.30;;;;;;5013604;28;20022;-71
2021/04/28 11:30:21;;;;;;;8.65;7.15;;;19.50;69.90;;;;;;5013323;28;20022;-71
2021/04/28 11:33:06;;;;;;;6.90;6.05;;;19.40;67.50;;;;;;5014144;28;20030;-71
2021/04/28 11:35:32;;;;;;;13.57;7.07;;;19.80;69.90;;;;;;5012885;28;20022;-72
2021/04/28 11:38:06;;;;;;;11.02;7.28;;;19.90;70.20;;;;;;5013275;28;20758;-71
2021/04/28 11:40:46;;;;;;;9.77;7.03;;;19.50;67.20;;;;;;5014284;28;20034;-72
2021/04/28 11:43:12;;;;;;;7.60;6.55;;;19.80;67.60;;;;;;5014256;28;20033;-71
2021/04/28 11:45:37;;;;;;;9.85;6.70;;;20.00;68.50;;;;;;5013931;28;20365;-71
2021/04/28 11:48:17;;;;;;;14.48;6.53;;;20.20;66.50;;;;;;5013917;28;20030;-71
2021/04/28 11:50:48;;;;;;;8.98;7.43;;;20.50;69.10;;;;;;5014116;28;20061;-71
2021/04/28 11:53:13;;;;;;;9.30;6.90;;;20.40;69.20;;;;;;5013990;28;20025;-73
2021/04/28 11:55:40;;;;;;;10.00;7.38;;;20.50;67.30;;;;;;5013803;28;20138;-71
2021/04/28 11:58:27;;;;;;;10.75;6.55;;;20.40;70.70;;;;;;5000595;28;20534;-71
2021/04/28 12:01:04;;;;;;;12.30;7.75;;;20.70;66.70;;;;;;5012300;28;20088;-70
2021/04/28 12:03:48;;;;;;;8.65;6.60;;;20.70;65.00;;;;;;5013578;28;20529;-71
2021/04/28 12:06:38;;;;;;;10.45;7.15;;;20.20;65.60;;;;;;4995336;28;20026;-71
2021/04/28 12:09:17;;;;;;;11.88;6.55;;;21.00;64.70;;;;;;5013691;28;20514;-71
2021/04/28 12:11:45;;;;;;;10.23;7.28;;;21.20;63.40;;;;;;5002034;28;20370;-72
2021/04/28 12:14:11;;;;;;;10.18;7.15;;;21.20;61.80;;;;;;5012399;28;20453;-71
2021/04/28 12:16:51;;;;;;;8.63;6.60;;;21.10;63.40;;;;;;5013493;28;20053;-71
2021/04/28 12:19:16;;;;;;;11.73;7.90;;;21.40;63.30;;;;;;5013941;28;20026;-71
2021/04/28 12:22:01;;;;;;;8.57;7.43;;;21.40;62.60;;;;;;5012238;28;20072;-73
2021/04/28 12:24:32;;;;;;;10.68;8.07;;;21.20;63.60;;;;;;5013418;28;20022;-73
2021/04/28 12:27:24;;;;;;;11.95;8.05;;;21.70;62.10;;;;;;5013641;28;20384;-73
2021/04/28 12:29:57;;;;;;;11.95;8.15;;;21.80;65.90;;;;;;5000614;28;20030;-73
2021/04/28 12:32:29;;;;;;;11.05;7.95;;;22.10;64.20;;;;;;5011954;28;20034;-73
2021/04/28 12:35:16;;;;;;;8.73;6.65;;;22.30;61.20;;;;;;5013041;28;20554;-74
2021/04/28 12:37:58;;;;;;;10.43;7.55;;;21.50;60.50;;;;;;5011728;28;20049;-72
2021/04/28 12:40:45;;;;;;;11.57;7.68;;;20.70;61.90;;;;;;5012939;28;20511;-73
2021/04/28 12:43:17;;;;;;;11.00;7.72;;;19.70;61.00;;;;;;5012833;28;20487;-73
2021/04/28 12:45:43;;;;;;;11.23;7.60;;;19.20;61.60;;;;;;5011517;28;20029;-74
2021/04/28 12:48:13;;;;;;;10.50;7.97;;;19.60;62.70;;;;;;5012949;28;20026;-73